Chantal — A8WQ3 — position and weather

sailwx.info

Track history (hours):
 
Tides and Currents Weather Stations Pressure Air Temp Water Temp Dewpoint Dewpoint Depression Visibility Wind Speed Wind Dir Waves Ship Positions

Chantal

Last reported at 2016-Jul-03 12:16 UTC. Time now 2016-Jul-29 12:02 UTC.
Position N 31°51' W 119°22'.
Warning: this ship's position is 25 days out of date.

Length 228 m; draft 8.2 m.

Type: Tanker. MMSI: 636014805.

Date/timePositionNaut miles runAvg speedWind from/ knotsBaromVisibWave heightAir tempDewpointWater temp
2016-Jul-03 12:16N 31°51' W 119°22'4 1.5
2016-Jul-03 09:31N 31°52' W 119°26'10 1.4
2016-Jul-03 02:30N 31°58' W 119°36'4 1.4
2016-Jul-02 23:33N 32°01' W 119°40'2 1.7
2016-Jul-02 22:33N 32°02' W 119°41'1 1.4
2016-Jul-02 21:31N 32°02' W 119°43'2 1.6
2016-Jul-02 20:14N 32°03' W 119°45'1 1.1
2016-Jul-02 19:33N 32°04' W 119°46'14 4.7
2016-Jul-02 16:30N 32°13' W 119°59'1 0.6
2016-Jul-02 14:04N 32°14' W 119°60'3 2.8
2016-Jul-02 13:04N 32°15' W 119°57'2 2.8
2016-Jul-02 12:31N 32°15' W 119°58'8 6.4
2016-Jul-02 11:20N 32°20' W 120°05'5 6.5
2016-Jul-02 10:30N 32°23' W 120°10'6 5.2
2016-Jul-02 09:25N 32°28' W 120°14'6 4.4
2016-Jul-02 08:04N 32°24' W 120°09'3 4.4
2016-Jul-02 07:29N 32°22' W 120°07'4 4.2
2016-Jul-02 06:32N 32°19' W 120°04'9 4.3
2016-Jul-02 04:28N 32°14' W 119°55'6 4.5
2016-Jul-02 03:13N 32°12' W 119°49'2 1.8
2016-Jul-02 02:21N 32°14' W 119°49'1012.5
2016-Jul-02 01:33N 32°15' W 120°01'1 1.1
2016-Jul-02 00:20N 32°15' W 119°59'1310.3
2016-Jul-01 23:05N 32°02' W 120°01'13 1.2
2016-Jul-01 12:33N 32°14' W 119°57'1512.9
2016-Jul-01 11:25N 32°10' W 119°40'1212.6
2016-Jul-01 10:27N 32°07' W 119°26'1112.6
2016-Jul-01 09:33N 32°04' W 119°13'1312.7
2016-Jul-01 08:33N 32°01' W 118°59'1312.8
2016-Jul-01 07:33N 31°58' W 118°44'1312.7
2016-Jul-01 06:33N 31°54' W 118°30'1313.1
2016-Jul-01 05:33N 31°52' W 118°14'1110.9
2016-Jul-01 04:33N 31°51' W 118°02'1010.5
2016-Jul-01 03:33N 31°50' W 117°49'1010.3
2016-Jul-01 02:33N 31°50' W 117°37'1310.8
2016-Jul-01 01:23N 31°47' W 117°23'7 0.5
2016-Jun-30 10:23N 31°52' W 117°29'0 0.4
2016-Jun-30 09:29N 31°52' W 117°30'1 0.6
2016-Jun-30 08:17N 31°53' W 117°30'2 0.8
2016-Jun-30 06:17N 31°53' W 117°32'1 0.8
2016-Jun-30 05:23N 31°53' W 117°33'1 0.6
2016-Jun-30 03:17N 31°54' W 117°34'3 1.1
2016-Jun-30 00:29N 31°57' W 117°36'2 1.5
2016-Jun-29 23:05N 31°59' W 117°38'1 1.8
2016-Jun-29 22:29N 31°60' W 117°38'5 4.9
2016-Jun-29 21:33N 32°01' W 117°33'7 5.9
2016-Jun-29 20:22N 31°59' W 117°25'1 0.9
2016-Jun-29 19:28N 31°59' W 117°26'1 0.7
2016-Jun-29 18:28N 31°58' W 117°26'1 0.9
2016-Jun-29 17:28N 31°57' W 117°27'1 0.9
2016-Jun-29 16:28N 31°57' W 117°28'1 1.1
2016-Jun-29 15:28N 31°56' W 117°29'1 0.9
2016-Jun-29 14:22N 31°55' W 117°29'1 0.8
2016-Jun-29 13:22N 31°55' W 117°30'1 0.8
2016-Jun-29 12:28N 31°54' W 117°30'1 0.7
2016-Jun-29 11:22N 31°53' W 117°31'1 0.6
2016-Jun-29 10:28N 31°53' W 117°31'0 0.4
2016-Jun-29 09:28N 31°53' W 117°32'1 0.7
2016-Jun-29 08:22N 31°53' W 117°32'1 0.9
2016-Jun-29 07:28N 31°53' W 117°33'1 1.0
2016-Jun-29 06:04N 31°53' W 117°35'1 0.9
2016-Jun-29 05:28N 31°53' W 117°36'1 0.8
2016-Jun-29 04:16N 31°53' W 117°37'1 0.8
2016-Jun-29 03:04N 31°53' W 117°38'4 5.3
2016-Jun-29 02:13N 31°57' W 117°38'811.6
2016-Jun-29 01:33N 32°05' W 117°38'1211.6
2016-Jun-29 00:33N 32°16' W 117°41'1111.2
2016-Jun-28 23:33N 32°27' W 117°45'1111.5
2016-Jun-28 22:33N 32°38' W 117°49'1413.8
2016-Jun-28 21:33N 32°51' W 117°54'1413.7
2016-Jun-28 20:33N 33°04' W 118°00'1211.6
2016-Jun-28 19:33N 33°15' W 118°05'1111.4
2016-Jun-28 18:34N 33°26' W 118°09'1111.0
2016-Jun-28 17:33N 33°36' W 118°13'8 7.8
2016-Jun-28 16:33N 33°42' W 118°08'0 0.1
2016-Jun-28 15:33N 33°42' W 118°08'0 0.0
2016-Jun-28 14:33N 33°42' W 118°08'0 0.1
2016-Jun-28 13:33N 33°42' W 118°08'0 0.0
2016-Jun-28 12:30N 33°42' W 118°08'0 0.0
2016-Jun-28 11:33N 33°42' W 118°08'0 0.1
2016-Jun-28 10:33N 33°42' W 118°08'0 0.0
2016-Jun-28 09:33N 33°42' W 118°08'0 0.0
2016-Jun-28 08:33N 33°42' W 118°08'0 0.0
2016-Jun-28 07:33N 33°42' W 118°08'0 0.1
2016-Jun-28 06:33N 33°42' W 118°08'0 0.0
2016-Jun-28 04:33N 33°42' W 118°08'0 0.0
2016-Jun-28 03:30N 33°42' W 118°08'0 0.0
2016-Jun-28 02:33N 33°42' W 118°08'0 0.0
2016-Jun-28 01:33N 33°42' W 118°08'0 0.1
2016-Jun-28 00:33N 33°42' W 118°08'0 0.0
2016-Jun-27 23:33N 33°42' W 118°08'0 0.1
2016-Jun-27 22:33N 33°42' W 118°08'5 5.5
2016-Jun-27 21:33N 33°46' W 118°13'1 0.8
2016-Jun-27 20:31N 33°46' W 118°13'0 0.0
2016-Jun-27 19:31N 33°46' W 118°13'0 0.0
2016-Jun-27 18:31N 33°46' W 118°13'0 0.0
2016-Jun-27 17:31N 33°46' W 118°13'0 0.0
2016-Jun-27 16:31N 33°46' W 118°13'0 0.0
2016-Jun-27 15:28N 33°46' W 118°13'0 0.0
2016-Jun-27 14:31N 33°46' W 118°13'0 0.0
2016-Jun-27 13:31N 33°46' W 118°13'0 0.0
2016-Jun-27 12:28N 33°46' W 118°13'0 0.0
2016-Jun-27 11:31N 33°46' W 118°13'0 0.0
2016-Jun-27 10:31N 33°46' W 118°13'0 0.0
2016-Jun-27 09:31N 33°46' W 118°13'0 0.0
2016-Jun-27 08:31N 33°46' W 118°13'0 0.0
2016-Jun-27 07:31N 33°46' W 118°13'0 0.0
2016-Jun-27 06:31N 33°46' W 118°13'0 0.0
2016-Jun-27 05:31N 33°46' W 118°13'0 0.0
2016-Jun-27 04:31N 33°46' W 118°13'0 0.0
2016-Jun-27 03:28N 33°46' W 118°13'0 0.0
2016-Jun-27 02:31N 33°46' W 118°13'0 0.0
2016-Jun-27 01:31N 33°46' W 118°13'0 0.0
2016-Jun-27 00:31N 33°46' W 118°13'0 0.0
2016-Jun-26 23:31N 33°46' W 118°13'0 0.0
2016-Jun-26 22:31N 33°46' W 118°13'0 0.0
2016-Jun-26 21:31N 33°46' W 118°13'0 0.0
2016-Jun-26 20:31N 33°46' W 118°13'0 0.0
2016-Jun-26 19:31N 33°46' W 118°13'0 0.0
2016-Jun-26 18:31N 33°46' W 118°13'0 0.0
2016-Jun-26 17:31N 33°46' W 118°13'0 0.0
2016-Jun-26 16:31N 33°46' W 118°13'0 0.0
2016-Jun-26 15:31N 33°46' W 118°13'0 0.0
2016-Jun-26 14:31N 33°46' W 118°13'0 0.0
2016-Jun-26 13:31N 33°46' W 118°13'0 0.0
2016-Jun-26 12:31N 33°46' W 118°13'0 0.0
2016-Jun-26 11:31N 33°46' W 118°13'0 0.0
2016-Jun-26 10:31N 33°46' W 118°13'0 0.0
2016-Jun-26 09:31N 33°46' W 118°13'0 0.0
2016-Jun-26 08:31N 33°46' W 118°13'0 0.0
2016-Jun-26 07:31N 33°46' W 118°13'0 0.0
2016-Jun-26 06:31N 33°46' W 118°13'0 0.0
2016-Jun-26 05:31N 33°46' W 118°13'0 0.0
2016-Jun-26 04:31N 33°46' W 118°13'0 0.0
2016-Jun-26 03:31N 33°46' W 118°13'0 0.0
2016-Jun-26 02:31N 33°46' W 118°13'0 0.0
2016-Jun-26 01:31N 33°46' W 118°13'0 0.0
2016-Jun-26 00:31N 33°46' W 118°13'0 0.0
2016-Jun-25 23:31N 33°46' W 118°13'0 0.0
2016-Jun-25 22:31N 33°46' W 118°13'0 0.0
2016-Jun-25 21:31N 33°46' W 118°13'0 0.0
2016-Jun-25 20:31N 33°46' W 118°13'0 0.0
2016-Jun-25 19:34N 33°46' W 118°13'0 0.1
2016-Jun-25 18:34N 33°46' W 118°13'4 3.6
2016-Jun-25 17:34N 33°43' W 118°11'8 8.0
2016-Jun-25 16:33N 33°35' W 118°10'10 9.6
2016-Jun-25 15:33N 33°26' W 118°06'1010.2
2016-Jun-25 14:33N 33°17' W 118°02'1110.5
2016-Jun-25 13:33N 33°06' W 117°58'1010.4
2016-Jun-25 12:34N 32°56' W 117°55'1110.7
2016-Jun-25 11:34N 32°46' W 117°52'1110.8
2016-Jun-25 10:33N 32°36' W 117°49'1110.8
2016-Jun-25 09:33N 32°25' W 117°49'8 7.8
2016-Jun-25 08:33N 32°20' W 117°42'1110.6
2016-Jun-25 07:33N 32°19' W 117°30'5 0.4
2016-Jun-24 20:14N 32°18' W 117°24'0 0.5
2016-Jun-24 19:26N 32°17' W 117°24'4 0.4
2016-Jun-24 11:32N 32°14' W 117°25'0 0.2
2016-Jun-24 09:32N 32°13' W 117°24'0 0.1
2016-Jun-24 06:32N 32°13' W 117°24'0 0.0
2016-Jun-24 02:14N 32°13' W 117°24'0 0.1
2016-Jun-23 22:33N 32°14' W 117°24'0 0.2
2016-Jun-23 21:33N 32°14' W 117°24'0 0.2
2016-Jun-23 19:33N 32°14' W 117°25'0 0.1
2016-Jun-23 15:24N 32°13' W 117°25'  
Track history (hours):
 
Tides and Currents Weather Stations Pressure Air Temp Water Temp Dewpoint Dewpoint Depression Visibility Wind Speed Wind Dir Waves Ship Positions

Chantal

Last reported at 2016-Jul-03 12:16 UTC. Time now 2016-Jul-29 12:02 UTC.
Position N 31°51' W 119°22'.
Warning: this ship's position is 25 days out of date.

Length 228 m; draft 8.2 m.

Type: Tanker. MMSI: 636014805.

Date/timePositionNaut miles runAvg speedWind from/ knotsBaromVisibWave heightAir tempDewpointWater temp
2016-Jul-03 12:16N 31°51' W 119°22'4 1.5
2016-Jul-03 09:31N 31°52' W 119°26'10 1.4
2016-Jul-03 02:30N 31°58' W 119°36'4 1.4
2016-Jul-02 23:33N 32°01' W 119°40'2 1.7
2016-Jul-02 22:33N 32°02' W 119°41'1 1.4
2016-Jul-02 21:31N 32°02' W 119°43'2 1.6
2016-Jul-02 20:14N 32°03' W 119°45'1 1.1
2016-Jul-02 19:33N 32°04' W 119°46'14 4.7
2016-Jul-02 16:30N 32°13' W 119°59'1 0.6
2016-Jul-02 14:04N 32°14' W 119°60'3 2.8
2016-Jul-02 13:04N 32°15' W 119°57'2 2.8
2016-Jul-02 12:31N 32°15' W 119°58'8 6.4
2016-Jul-02 11:20N 32°20' W 120°05'5 6.5
2016-Jul-02 10:30N 32°23' W 120°10'6 5.2
2016-Jul-02 09:25N 32°28' W 120°14'6 4.4
2016-Jul-02 08:04N 32°24' W 120°09'3 4.4
2016-Jul-02 07:29N 32°22' W 120°07'4 4.2
2016-Jul-02 06:32N 32°19' W 120°04'9 4.3
2016-Jul-02 04:28N 32°14' W 119°55'6 4.5
2016-Jul-02 03:13N 32°12' W 119°49'2 1.8
2016-Jul-02 02:21N 32°14' W 119°49'1012.5
2016-Jul-02 01:33N 32°15' W 120°01'1 1.1
2016-Jul-02 00:20N 32°15' W 119°59'1310.3
2016-Jul-01 23:05N 32°02' W 120°01'13 1.2
2016-Jul-01 12:33N 32°14' W 119°57'1512.9
2016-Jul-01 11:25N 32°10' W 119°40'1212.6
2016-Jul-01 10:27N 32°07' W 119°26'1112.6
2016-Jul-01 09:33N 32°04' W 119°13'1312.7
2016-Jul-01 08:33N 32°01' W 118°59'1312.8
2016-Jul-01 07:33N 31°58' W 118°44'1312.7
2016-Jul-01 06:33N 31°54' W 118°30'1313.1
2016-Jul-01 05:33N 31°52' W 118°14'1110.9
2016-Jul-01 04:33N 31°51' W 118°02'1010.5
2016-Jul-01 03:33N 31°50' W 117°49'1010.3
2016-Jul-01 02:33N 31°50' W 117°37'1310.8
2016-Jul-01 01:23N 31°47' W 117°23'7 0.5
2016-Jun-30 10:23N 31°52' W 117°29'0 0.4
2016-Jun-30 09:29N 31°52' W 117°30'1 0.6
2016-Jun-30 08:17N 31°53' W 117°30'2 0.8
2016-Jun-30 06:17N 31°53' W 117°32'1 0.8
2016-Jun-30 05:23N 31°53' W 117°33'1 0.6
2016-Jun-30 03:17N 31°54' W 117°34'3 1.1
2016-Jun-30 00:29N 31°57' W 117°36'2 1.5
2016-Jun-29 23:05N 31°59' W 117°38'1 1.8
2016-Jun-29 22:29N 31°60' W 117°38'5 4.9
2016-Jun-29 21:33N 32°01' W 117°33'7 5.9
2016-Jun-29 20:22N 31°59' W 117°25'1 0.9
2016-Jun-29 19:28N 31°59' W 117°26'1 0.7
2016-Jun-29 18:28N 31°58' W 117°26'1 0.9
2016-Jun-29 17:28N 31°57' W 117°27'1 0.9
2016-Jun-29 16:28N 31°57' W 117°28'1 1.1
2016-Jun-29 15:28N 31°56' W 117°29'1 0.9
2016-Jun-29 14:22N 31°55' W 117°29'1 0.8
2016-Jun-29 13:22N 31°55' W 117°30'1 0.8
2016-Jun-29 12:28N 31°54' W 117°30'1 0.7
2016-Jun-29 11:22N 31°53' W 117°31'1 0.6
2016-Jun-29 10:28N 31°53' W 117°31'0 0.4
2016-Jun-29 09:28N 31°53' W 117°32'1 0.7
2016-Jun-29 08:22N 31°53' W 117°32'1 0.9
2016-Jun-29 07:28N 31°53' W 117°33'1 1.0
2016-Jun-29 06:04N 31°53' W 117°35'1 0.9
2016-Jun-29 05:28N 31°53' W 117°36'1 0.8
2016-Jun-29 04:16N 31°53' W 117°37'1 0.8
2016-Jun-29 03:04N 31°53' W 117°38'4 5.3
2016-Jun-29 02:13N 31°57' W 117°38'811.6
2016-Jun-29 01:33N 32°05' W 117°38'1211.6
2016-Jun-29 00:33N 32°16' W 117°41'1111.2
2016-Jun-28 23:33N 32°27' W 117°45'1111.5
2016-Jun-28 22:33N 32°38' W 117°49'1413.8
2016-Jun-28 21:33N 32°51' W 117°54'1413.7
2016-Jun-28 20:33N 33°04' W 118°00'1211.6
2016-Jun-28 19:33N 33°15' W 118°05'1111.4
2016-Jun-28 18:34N 33°26' W 118°09'1111.0
2016-Jun-28 17:33N 33°36' W 118°13'8 7.8
2016-Jun-28 16:33N 33°42' W 118°08'0 0.1
2016-Jun-28 15:33N 33°42' W 118°08'0 0.0
2016-Jun-28 14:33N 33°42' W 118°08'0 0.1
2016-Jun-28 13:33N 33°42' W 118°08'0 0.0
2016-Jun-28 12:30N 33°42' W 118°08'0 0.0
2016-Jun-28 11:33N 33°42' W 118°08'0 0.1
2016-Jun-28 10:33N 33°42' W 118°08'0 0.0
2016-Jun-28 09:33N 33°42' W 118°08'0 0.0
2016-Jun-28 08:33N 33°42' W 118°08'0 0.0
2016-Jun-28 07:33N 33°42' W 118°08'0 0.1
2016-Jun-28 06:33N 33°42' W 118°08'0 0.0
2016-Jun-28 04:33N 33°42' W 118°08'0 0.0
2016-Jun-28 03:30N 33°42' W 118°08'0 0.0
2016-Jun-28 02:33N 33°42' W 118°08'0 0.0
2016-Jun-28 01:33N 33°42' W 118°08'0 0.1
2016-Jun-28 00:33N 33°42' W 118°08'0 0.0
2016-Jun-27 23:33N 33°42' W 118°08'0 0.1
2016-Jun-27 22:33N 33°42' W 118°08'5 5.5
2016-Jun-27 21:33N 33°46' W 118°13'1 0.8
2016-Jun-27 20:31N 33°46' W 118°13'0 0.0
2016-Jun-27 19:31N 33°46' W 118°13'0 0.0
2016-Jun-27 18:31N 33°46' W 118°13'0 0.0
2016-Jun-27 17:31N 33°46' W 118°13'0 0.0
2016-Jun-27 16:31N 33°46' W 118°13'0 0.0
2016-Jun-27 15:28N 33°46' W 118°13'0 0.0
2016-Jun-27 14:31N 33°46' W 118°13'0 0.0
2016-Jun-27 13:31N 33°46' W 118°13'0 0.0
2016-Jun-27 12:28N 33°46' W 118°13'0 0.0
2016-Jun-27 11:31N 33°46' W 118°13'0 0.0
2016-Jun-27 10:31N 33°46' W 118°13'0 0.0
2016-Jun-27 09:31N 33°46' W 118°13'0 0.0
2016-Jun-27 08:31N 33°46' W 118°13'0 0.0
2016-Jun-27 07:31N 33°46' W 118°13'0 0.0
2016-Jun-27 06:31N 33°46' W 118°13'0 0.0
2016-Jun-27 05:31N 33°46' W 118°13'0 0.0
2016-Jun-27 04:31N 33°46' W 118°13'0 0.0
2016-Jun-27 03:28N 33°46' W 118°13'0 0.0
2016-Jun-27 02:31N 33°46' W 118°13'0 0.0
2016-Jun-27 01:31N 33°46' W 118°13'0 0.0
2016-Jun-27 00:31N 33°46' W 118°13'0 0.0
2016-Jun-26 23:31N 33°46' W 118°13'0 0.0
2016-Jun-26 22:31N 33°46' W 118°13'0 0.0
2016-Jun-26 21:31N 33°46' W 118°13'0 0.0
2016-Jun-26 20:31N 33°46' W 118°13'0 0.0
2016-Jun-26 19:31N 33°46' W 118°13'0 0.0
2016-Jun-26 18:31N 33°46' W 118°13'0 0.0
2016-Jun-26 17:31N 33°46' W 118°13'0 0.0
2016-Jun-26 16:31N 33°46' W 118°13'0 0.0
2016-Jun-26 15:31N 33°46' W 118°13'0 0.0
2016-Jun-26 14:31N 33°46' W 118°13'0 0.0
2016-Jun-26 13:31N 33°46' W 118°13'0 0.0
2016-Jun-26 12:31N 33°46' W 118°13'0 0.0
2016-Jun-26 11:31N 33°46' W 118°13'0 0.0
2016-Jun-26 10:31N 33°46' W 118°13'0 0.0
2016-Jun-26 09:31N 33°46' W 118°13'0 0.0
2016-Jun-26 08:31N 33°46' W 118°13'0 0.0
2016-Jun-26 07:31N 33°46' W 118°13'0 0.0
2016-Jun-26 06:31N 33°46' W 118°13'0 0.0
2016-Jun-26 05:31N 33°46' W 118°13'0 0.0
2016-Jun-26 04:31N 33°46' W 118°13'0 0.0
2016-Jun-26 03:31N 33°46' W 118°13'0 0.0
2016-Jun-26 02:31N 33°46' W 118°13'0 0.0
2016-Jun-26 01:31N 33°46' W 118°13'0 0.0
2016-Jun-26 00:31N 33°46' W 118°13'0 0.0
2016-Jun-25 23:31N 33°46' W 118°13'0 0.0
2016-Jun-25 22:31N 33°46' W 118°13'0 0.0
2016-Jun-25 21:31N 33°46' W 118°13'0 0.0
2016-Jun-25 20:31N 33°46' W 118°13'0 0.0
2016-Jun-25 19:34N 33°46' W 118°13'0 0.1
2016-Jun-25 18:34N 33°46' W 118°13'4 3.6
2016-Jun-25 17:34N 33°43' W 118°11'8 8.0
2016-Jun-25 16:33N 33°35' W 118°10'10 9.6
2016-Jun-25 15:33N 33°26' W 118°06'1010.2
2016-Jun-25 14:33N 33°17' W 118°02'1110.5
2016-Jun-25 13:33N 33°06' W 117°58'1010.4
2016-Jun-25 12:34N 32°56' W 117°55'1110.7
2016-Jun-25 11:34N 32°46' W 117°52'1110.8
2016-Jun-25 10:33N 32°36' W 117°49'1110.8
2016-Jun-25 09:33N 32°25' W 117°49'8 7.8
2016-Jun-25 08:33N 32°20' W 117°42'1110.6
2016-Jun-25 07:33N 32°19' W 117°30'5 0.4
2016-Jun-24 20:14N 32°18' W 117°24'0 0.5
2016-Jun-24 19:26N 32°17' W 117°24'4 0.4
2016-Jun-24 11:32N 32°14' W 117°25'0 0.2
2016-Jun-24 09:32N 32°13' W 117°24'0 0.1
2016-Jun-24 06:32N 32°13' W 117°24'0 0.0
2016-Jun-24 02:14N 32°13' W 117°24'0 0.1
2016-Jun-23 22:33N 32°14' W 117°24'0 0.2
2016-Jun-23 21:33N 32°14' W 117°24'0 0.2
2016-Jun-23 19:33N 32°14' W 117°25'0 0.1
2016-Jun-23 15:24N 32°13' W 117°25'  

Dump ship's entire track history